sensor_id;sensor_type;location;lat;lon;timestamp;P1;durP1;ratioP1;P2;durP2;ratioP2
17997;SDS011;9124;48.144;17.098;2022-08-01T00:02:47;3.60;;;2.95;;
17997;SDS011;9124;48.144;17.098;2022-08-01T00:06:24;4.68;;;2.67;;
17997;SDS011;9124;48.144;17.098;2022-08-01T00:10:01;2.40;;;2.30;;
17997;SDS011;9124;48.144;17.098;2022-08-01T00:13:42;2.60;;;2.50;;
17997;SDS011;9124;48.144;17.098;2022-08-01T00:17:18;3.13;;;2.88;;
17997;SDS011;9124;48.144;17.098;2022-08-01T00:20:55;5.38;;;2.55;;
17997;SDS011;9124;48.144;17.098;2022-08-01T00:24:32;2.72;;;2.53;;
17997;SDS011;9124;48.144;17.098;2022-08-01T00:28:09;3.08;;;2.88;;
17997;SDS011;9124;48.144;17.098;2022-08-01T00:31:45;2.95;;;2.75;;
17997;SDS011;9124;48.144;17.098;2022-08-01T00:35:23;2.95;;;2.65;;
17997;SDS011;9124;48.144;17.098;2022-08-01T00:38:59;3.75;;;2.40;;
17997;SDS011;9124;48.144;17.098;2022-08-01T00:42:36;7.25;;;3.00;;
17997;SDS011;9124;48.144;17.098;2022-08-01T00:46:13;2.67;;;2.45;;
17997;SDS011;9124;48.144;17.098;2022-08-01T00:49:51;2.88;;;2.65;;
17997;SDS011;9124;48.144;17.098;2022-08-01T00:53:27;2.72;;;2.53;;
17997;SDS011;9124;48.144;17.098;2022-08-01T00:57:04;3.22;;;2.92;;
17997;SDS011;9124;48.144;17.098;2022-08-01T01:00:41;5.15;;;2.42;;
17997;SDS011;9124;48.144;17.098;2022-08-01T01:04:18;3.08;;;2.72;;
17997;SDS011;9124;48.144;17.098;2022-08-01T01:11:35;3.85;;;2.80;;
17997;SDS011;9124;48.144;17.098;2022-08-01T01:15:34;2.80;;;2.70;;
17997;SDS011;9124;48.144;17.098;2022-08-01T01:19:21;3.60;;;2.60;;
17997;SDS011;9124;48.144;17.098;2022-08-01T01:31:14;2.65;;;2.45;;
17997;SDS011;9124;48.144;17.098;2022-08-01T01:34:56;4.63;;;2.88;;
17997;SDS011;9124;48.144;17.098;2022-08-01T01:38:36;3.00;;;2.80;;
17997;SDS011;9124;48.144;17.098;2022-08-01T01:42:20;4.60;;;2.83;;
17997;SDS011;9124;48.144;17.098;2022-08-01T01:45:58;2.92;;;2.72;;
17997;SDS011;9124;48.144;17.098;2022-08-01T01:49:37;4.63;;;3.05;;
17997;SDS011;9124;48.144;17.098;2022-08-01T01:53:18;3.63;;;2.80;;
17997;SDS011;9124;48.144;17.098;2022-08-01T01:56:58;3.00;;;2.78;;
17997;SDS011;9124;48.144;17.098;2022-08-01T02:00:37;3.33;;;3.03;;
17997;SDS011;9124;48.144;17.098;2022-08-01T02:04:16;2.75;;;2.65;;
17997;SDS011;9124;48.144;17.098;2022-08-01T02:07:55;2.75;;;2.40;;
17997;SDS011;9124;48.144;17.098;2022-08-01T02:11:34;2.85;;;2.63;;
17997;SDS011;9124;48.144;17.098;2022-08-01T02:15:14;3.65;;;2.70;;
17997;SDS011;9124;48.144;17.098;2022-08-01T02:18:54;3.67;;;2.65;;
17997;SDS011;9124;48.144;17.098;2022-08-01T02:22:36;3.05;;;2.60;;
17997;SDS011;9124;48.144;17.098;2022-08-01T02:26:17;8.35;;;2.80;;
17997;SDS011;9124;48.144;17.098;2022-08-01T02:29:59;2.83;;;2.60;;
17997;SDS011;9124;48.144;17.098;2022-08-01T02:33:42;4.45;;;3.08;;
17997;SDS011;9124;48.144;17.098;2022-08-01T02:37:21;2.53;;;2.33;;
17997;SDS011;9124;48.144;17.098;2022-08-01T02:41:04;2.58;;;2.47;;
17997;SDS011;9124;48.144;17.098;2022-08-01T02:44:44;3.10;;;2.85;;
17997;SDS011;9124;48.144;17.098;2022-08-01T02:48:24;4.13;;;2.80;;
17997;SDS011;9124;48.144;17.098;2022-08-01T02:52:03;3.20;;;2.88;;
17997;SDS011;9124;48.144;17.098;2022-08-01T02:55:46;3.35;;;3.13;;
17997;SDS011;9124;48.144;17.098;2022-08-01T02:59:23;3.15;;;2.95;;
17997;SDS011;9124;48.144;17.098;2022-08-01T03:03:03;3.08;;;2.88;;
17997;SDS011;9124;48.144;17.098;2022-08-01T03:06:42;2.70;;;2.60;;
17997;SDS011;9124;48.144;17.098;2022-08-01T03:10:21;3.00;;;2.80;;
17997;SDS011;9124;48.144;17.098;2022-08-01T03:14:00;3.03;;;2.90;;
17997;SDS011;9124;48.144;17.098;2022-08-01T03:17:41;3.70;;;2.90;;
17997;SDS011;9124;48.144;17.098;2022-08-01T03:21:21;3.10;;;2.90;;
17997;SDS011;9124;48.144;17.098;2022-08-01T03:25:00;2.90;;;2.80;;
17997;SDS011;9124;48.144;17.098;2022-08-01T03:28:37;3.30;;;3.10;;
17997;SDS011;9124;48.144;17.098;2022-08-01T03:32:17;4.30;;;3.00;;
17997;SDS011;9124;48.144;17.098;2022-08-01T03:35:55;2.58;;;2.38;;
17997;SDS011;9124;48.144;17.098;2022-08-01T03:39:37;3.45;;;2.60;;
17997;SDS011;9124;48.144;17.098;2022-08-01T03:47:33;3.15;;;2.88;;
17997;SDS011;9124;48.144;17.098;2022-08-01T03:51:11;6.85;;;2.78;;
17997;SDS011;9124;48.144;17.098;2022-08-01T03:54:51;4.00;;;3.22;;
17997;SDS011;9124;48.144;17.098;2022-08-01T03:58:30;4.00;;;3.05;;
17997;SDS011;9124;48.144;17.098;2022-08-01T04:02:07;3.15;;;2.95;;
17997;SDS011;9124;48.144;17.098;2022-08-01T04:05:45;2.90;;;2.58;;
17997;SDS011;9124;48.144;17.098;2022-08-01T04:09:21;2.90;;;2.70;;
17997;SDS011;9124;48.144;17.098;2022-08-01T04:12:58;3.00;;;2.80;;
17997;SDS011;9124;48.144;17.098;2022-08-01T04:16:35;3.17;;;2.97;;
17997;SDS011;9124;48.144;17.098;2022-08-01T04:20:13;3.58;;;3.38;;
17997;SDS011;9124;48.144;17.098;2022-08-01T04:23:51;3.70;;;3.45;;
17997;SDS011;9124;48.144;17.098;2022-08-01T04:27:31;3.75;;;3.38;;
17997;SDS011;9124;48.144;17.098;2022-08-01T04:31:10;3.38;;;3.13;;
17997;SDS011;9124;48.144;17.098;2022-08-01T04:34:50;4.18;;;3.13;;
17997;SDS011;9124;48.144;17.098;2022-08-01T04:38:29;5.68;;;3.13;;
17997;SDS011;9124;48.144;17.098;2022-08-01T04:42:09;4.45;;;3.80;;
17997;SDS011;9124;48.144;17.098;2022-08-01T04:45:47;3.47;;;3.28;;
17997;SDS011;9124;48.144;17.098;2022-08-01T04:49:24;4.07;;;3.60;;
17997;SDS011;9124;48.144;17.098;2022-08-01T04:53:01;5.07;;;3.67;;
17997;SDS011;9124;48.144;17.098;2022-08-01T04:56:39;4.60;;;3.95;;
17997;SDS011;9124;48.144;17.098;2022-08-01T05:00:17;4.60;;;4.20;;
17997;SDS011;9124;48.144;17.098;2022-08-01T05:03:54;9.38;;;5.10;;
17997;SDS011;9124;48.144;17.098;2022-08-01T05:07:31;7.75;;;4.07;;
17997;SDS011;9124;48.144;17.098;2022-08-01T05:11:09;6.80;;;5.10;;
17997;SDS011;9124;48.144;17.098;2022-08-01T05:14:47;5.68;;;4.03;;
17997;SDS011;9124;48.144;17.098;2022-08-01T05:18:24;5.05;;;4.18;;
17997;SDS011;9124;48.144;17.098;2022-08-01T05:22:01;4.40;;;4.07;;
17997;SDS011;9124;48.144;17.098;2022-08-01T05:25:41;3.97;;;3.67;;
17997;SDS011;9124;48.144;17.098;2022-08-01T05:29:17;3.38;;;3.17;;
17997;SDS011;9124;48.144;17.098;2022-08-01T05:32:54;5.13;;;3.40;;
17997;SDS011;9124;48.144;17.098;2022-08-01T05:36:31;4.85;;;3.92;;
17997;SDS011;9124;48.144;17.098;2022-08-01T05:40:08;8.95;;;4.10;;
17997;SDS011;9124;48.144;17.098;2022-08-01T05:43:45;7.22;;;3.97;;
17997;SDS011;9124;48.144;17.098;2022-08-01T05:47:22;4.47;;;3.72;;
17997;SDS011;9124;48.144;17.098;2022-08-01T05:50:59;9.18;;;4.32;;
17997;SDS011;9124;48.144;17.098;2022-08-01T05:54:36;20.98;;;4.57;;
17997;SDS011;9124;48.144;17.098;2022-08-01T05:58:13;9.55;;;4.60;;
17997;SDS011;9124;48.144;17.098;2022-08-01T06:01:49;13.32;;;3.40;;
17997;SDS011;9124;48.144;17.098;2022-08-01T06:05:26;3.33;;;3.03;;
17997;SDS011;9124;48.144;17.098;2022-08-01T06:09:03;3.78;;;3.42;;
17997;SDS011;9124;48.144;17.098;2022-08-01T06:12:40;4.40;;;3.20;;
17997;SDS011;9124;48.144;17.098;2022-08-01T06:16:17;4.30;;;3.65;;
17997;SDS011;9124;48.144;17.098;2022-08-01T06:19:54;5.82;;;3.47;;
17997;SDS011;9124;48.144;17.098;2022-08-01T06:23:30;3.72;;;3.42;;
17997;SDS011;9124;48.144;17.098;2022-08-01T06:27:07;4.90;;;2.75;;
17997;SDS011;9124;48.144;17.098;2022-08-01T06:30:44;5.53;;;3.42;;
17997;SDS011;9124;48.144;17.098;2022-08-01T06:34:21;5.78;;;3.13;;
17997;SDS011;9124;48.144;17.098;2022-08-01T06:37:58;8.15;;;2.90;;
17997;SDS011;9124;48.144;17.098;2022-08-01T06:41:35;3.60;;;3.28;;
17997;SDS011;9124;48.144;17.098;2022-08-01T06:45:12;5.90;;;4.63;;
17997;SDS011;9124;48.144;17.098;2022-08-01T06:48:51;10.23;;;5.15;;
17997;SDS011;9124;48.144;17.098;2022-08-01T06:52:27;10.75;;;4.97;;
17997;SDS011;9124;48.144;17.098;2022-08-01T06:56:05;14.77;;;5.05;;
17997;SDS011;9124;48.144;17.098;2022-08-01T06:59:44;6.47;;;4.57;;
17997;SDS011;9124;48.144;17.098;2022-08-01T07:03:21;4.65;;;3.92;;
17997;SDS011;9124;48.144;17.098;2022-08-01T07:06:58;5.10;;;3.38;;
17997;SDS011;9124;48.144;17.098;2022-08-01T07:10:35;4.45;;;3.10;;
17997;SDS011;9124;48.144;17.098;2022-08-01T07:14:12;4.22;;;3.08;;
17997;SDS011;9124;48.144;17.098;2022-08-01T07:17:49;6.15;;;2.97;;
17997;SDS011;9124;48.144;17.098;2022-08-01T07:21:25;10.57;;;3.20;;
17997;SDS011;9124;48.144;17.098;2022-08-01T07:25:04;4.43;;;2.58;;
17997;SDS011;9124;48.144;17.098;2022-08-01T07:28:41;2.67;;;2.47;;
17997;SDS011;9124;48.144;17.098;2022-08-01T07:32:18;2.92;;;2.72;;
17997;SDS011;9124;48.144;17.098;2022-08-01T07:35:55;2.80;;;2.60;;
17997;SDS011;9124;48.144;17.098;2022-08-01T07:39:31;3.35;;;2.53;;
17997;SDS011;9124;48.144;17.098;2022-08-01T07:43:08;2.35;;;2.13;;
17997;SDS011;9124;48.144;17.098;2022-08-01T07:46:45;4.43;;;2.40;;
17997;SDS011;9124;48.144;17.098;2022-08-01T07:50:23;2.53;;;2.40;;
17997;SDS011;9124;48.144;17.098;2022-08-01T07:54:00;3.05;;;2.25;;
17997;SDS011;9124;48.144;17.098;2022-08-01T07:57:37;2.70;;;2.50;;
17997;SDS011;9124;48.144;17.098;2022-08-01T08:01:14;3.25;;;2.35;;
17997;SDS011;9124;48.144;17.098;2022-08-01T08:04:51;3.40;;;2.38;;
17997;SDS011;9124;48.144;17.098;2022-08-01T08:08:28;5.75;;;2.40;;
17997;SDS011;9124;48.144;17.098;2022-08-01T08:12:05;3.20;;;2.65;;
17997;SDS011;9124;48.144;17.098;2022-08-01T08:15:42;3.05;;;2.85;;
17997;SDS011;9124;48.144;17.098;2022-08-01T08:19:19;4.35;;;2.92;;
17997;SDS011;9124;48.144;17.098;2022-08-01T08:22:56;3.88;;;2.58;;
17997;SDS011;9124;48.144;17.098;2022-08-01T08:26:34;2.85;;;2.40;;
17997;SDS011;9124;48.144;17.098;2022-08-01T08:30:11;3.08;;;2.60;;
17997;SDS011;9124;48.144;17.098;2022-08-01T08:33:48;5.00;;;2.75;;
17997;SDS011;9124;48.144;17.098;2022-08-01T08:37:25;3.53;;;2.72;;
17997;SDS011;9124;48.144;17.098;2022-08-01T08:41:01;5.80;;;2.70;;
17997;SDS011;9124;48.144;17.098;2022-08-01T08:44:41;3.35;;;2.85;;
17997;SDS011;9124;48.144;17.098;2022-08-01T08:48:19;3.90;;;2.80;;
17997;SDS011;9124;48.144;17.098;2022-08-01T08:51:57;3.13;;;2.92;;
17997;SDS011;9124;48.144;17.098;2022-08-01T08:55:36;3.42;;;2.90;;
17997;SDS011;9124;48.144;17.098;2022-08-01T08:59:13;4.72;;;3.30;;
17997;SDS011;9124;48.144;17.098;2022-08-01T09:02:50;6.22;;;3.05;;
17997;SDS011;9124;48.144;17.098;2022-08-01T09:06:31;3.38;;;3.08;;
17997;SDS011;9124;48.144;17.098;2022-08-01T09:10:09;5.70;;;3.03;;
17997;SDS011;9124;48.144;17.098;2022-08-01T09:14:02;3.45;;;3.22;;
17997;SDS011;9124;48.144;17.098;2022-08-01T09:17:48;3.30;;;3.10;;
17997;SDS011;9124;48.144;17.098;2022-08-01T09:21:24;7.00;;;3.35;;
17997;SDS011;9124;48.144;17.098;2022-08-01T09:25:06;4.70;;;3.22;;
17997;SDS011;9124;48.144;17.098;2022-08-01T09:28:46;6.28;;;3.50;;
17997;SDS011;9124;48.144;17.098;2022-08-01T09:32:23;4.53;;;3.20;;
17997;SDS011;9124;48.144;17.098;2022-08-01T09:36:00;4.53;;;3.97;;
17997;SDS011;9124;48.144;17.098;2022-08-01T09:39:37;3.75;;;3.45;;
17997;SDS011;9124;48.144;17.098;2022-08-01T09:43:16;4.55;;;4.15;;
17997;SDS011;9124;48.144;17.098;2022-08-01T09:46:55;4.18;;;2.92;;
17997;SDS011;9124;48.144;17.098;2022-08-01T09:50:39;3.78;;;2.80;;
17997;SDS011;9124;48.144;17.098;2022-08-01T09:54:31;3.17;;;2.67;;
17997;SDS011;9124;48.144;17.098;2022-08-01T09:58:10;4.57;;;3.22;;
17997;SDS011;9124;48.144;17.098;2022-08-01T10:01:48;3.30;;;3.00;;
17997;SDS011;9124;48.144;17.098;2022-08-01T10:05:31;3.30;;;3.03;;
17997;SDS011;9124;48.144;17.098;2022-08-01T10:09:10;5.35;;;2.78;;
17997;SDS011;9124;48.144;17.098;2022-08-01T10:12:49;3.95;;;3.10;;
17997;SDS011;9124;48.144;17.098;2022-08-01T10:16:29;3.15;;;2.85;;
17997;SDS011;9124;48.144;17.098;2022-08-01T10:20:08;3.80;;;3.38;;
17997;SDS011;9124;48.144;17.098;2022-08-01T10:23:46;2.90;;;2.70;;
17997;SDS011;9124;48.144;17.098;2022-08-01T10:27:23;5.85;;;2.88;;
17997;SDS011;9124;48.144;17.098;2022-08-01T10:31:02;3.10;;;2.75;;
17997;SDS011;9124;48.144;17.098;2022-08-01T10:34:39;4.38;;;2.60;;
17997;SDS011;9124;48.144;17.098;2022-08-01T10:38:16;6.63;;;2.75;;
17997;SDS011;9124;48.144;17.098;2022-08-01T10:41:54;3.38;;;2.40;;
17997;SDS011;9124;48.144;17.098;2022-08-01T10:45:32;7.57;;;2.50;;
17997;SDS011;9124;48.144;17.098;2022-08-01T10:49:13;3.17;;;2.38;;
17997;SDS011;9124;48.144;17.098;2022-08-01T10:53:12;2.90;;;2.65;;
17997;SDS011;9124;48.144;17.098;2022-08-01T10:56:55;2.40;;;2.20;;
17997;SDS011;9124;48.144;17.098;2022-08-01T11:00:36;3.35;;;2.72;;
17997;SDS011;9124;48.144;17.098;2022-08-01T11:04:13;2.30;;;2.20;;
17997;SDS011;9124;48.144;17.098;2022-08-01T11:07:53;2.30;;;2.20;;
17997;SDS011;9124;48.144;17.098;2022-08-01T11:11:31;5.15;;;2.50;;
17997;SDS011;9124;48.144;17.098;2022-08-01T11:15:28;2.95;;;2.75;;
17997;SDS011;9124;48.144;17.098;2022-08-01T11:19:06;7.25;;;2.75;;
17997;SDS011;9124;48.144;17.098;2022-08-01T11:26:35;2.90;;;2.70;;
17997;SDS011;9124;48.144;17.098;2022-08-01T11:33:50;3.03;;;2.30;;
17997;SDS011;9124;48.144;17.098;2022-08-01T11:37:27;2.63;;;2.33;;
17997;SDS011;9124;48.144;17.098;2022-08-01T11:41:21;2.33;;;2.20;;
17997;SDS011;9124;48.144;17.098;2022-08-01T11:44:59;6.10;;;2.70;;
17997;SDS011;9124;48.144;17.098;2022-08-01T11:48:37;2.92;;;2.72;;
17997;SDS011;9124;48.144;17.098;2022-08-01T11:52:26;2.78;;;2.33;;
17997;SDS011;9124;48.144;17.098;2022-08-01T11:56:05;3.35;;;2.63;;
17997;SDS011;9124;48.144;17.098;2022-08-01T11:59:42;3.22;;;2.28;;
17997;SDS011;9124;48.144;17.098;2022-08-01T12:03:28;2.80;;;2.35;;
17997;SDS011;9124;48.144;17.098;2022-08-01T12:07:12;8.02;;;2.55;;
17997;SDS011;9124;48.144;17.098;2022-08-01T12:10:50;5.03;;;2.50;;
17997;SDS011;9124;48.144;17.098;2022-08-01T12:14:27;3.38;;;2.53;;
17997;SDS011;9124;48.144;17.098;2022-08-01T12:18:06;3.35;;;2.35;;
17997;SDS011;9124;48.144;17.098;2022-08-01T12:21:43;2.60;;;2.42;;
17997;SDS011;9124;48.144;17.098;2022-08-01T12:25:20;3.97;;;2.40;;
17997;SDS011;9124;48.144;17.098;2022-08-01T12:28:56;2.65;;;2.45;;
17997;SDS011;9124;48.144;17.098;2022-08-01T12:32:34;4.03;;;3.20;;
17997;SDS011;9124;48.144;17.098;2022-08-01T12:36:13;4.40;;;2.80;;
17997;SDS011;9124;48.144;17.098;2022-08-01T12:39:49;4.03;;;3.17;;
17997;SDS011;9124;48.144;17.098;2022-08-01T12:43:26;4.32;;;2.75;;
17997;SDS011;9124;48.144;17.098;2022-08-01T12:47:07;3.13;;;2.70;;
17997;SDS011;9124;48.144;17.098;2022-08-01T12:50:49;5.60;;;2.63;;
17997;SDS011;9124;48.144;17.098;2022-08-01T12:54:28;2.80;;;2.60;;
17997;SDS011;9124;48.144;17.098;2022-08-01T12:58:06;8.15;;;2.45;;
17997;SDS011;9124;48.144;17.098;2022-08-01T13:01:44;3.17;;;2.85;;
17997;SDS011;9124;48.144;17.098;2022-08-01T13:05:24;4.13;;;2.40;;
17997;SDS011;9124;48.144;17.098;2022-08-01T13:09:07;6.72;;;3.25;;
17997;SDS011;9124;48.144;17.098;2022-08-01T13:16:49;3.08;;;2.72;;
17997;SDS011;9124;48.144;17.098;2022-08-01T13:20:27;7.05;;;2.95;;
17997;SDS011;9124;48.144;17.098;2022-08-01T13:24:13;7.65;;;2.67;;
17997;SDS011;9124;48.144;17.098;2022-08-01T13:28:13;2.42;;;2.22;;
17997;SDS011;9124;48.144;17.098;2022-08-01T13:31:50;4.72;;;2.45;;
17997;SDS011;9124;48.144;17.098;2022-08-01T13:35:27;6.03;;;2.15;;
17997;SDS011;9124;48.144;17.098;2022-08-01T13:39:04;2.33;;;2.00;;
17997;SDS011;9124;48.144;17.098;2022-08-01T13:43:00;2.25;;;2.05;;
17997;SDS011;9124;48.144;17.098;2022-08-01T13:46:37;2.03;;;1.83;;
17997;SDS011;9124;48.144;17.098;2022-08-01T13:50:14;2.20;;;1.80;;
17997;SDS011;9124;48.144;17.098;2022-08-01T13:53:52;5.22;;;2.47;;
17997;SDS011;9124;48.144;17.098;2022-08-01T13:57:29;3.55;;;2.00;;
17997;SDS011;9124;48.144;17.098;2022-08-01T14:01:06;8.88;;;1.83;;
17997;SDS011;9124;48.144;17.098;2022-08-01T14:04:42;3.85;;;2.55;;
17997;SDS011;9124;48.144;17.098;2022-08-01T14:08:19;4.22;;;2.30;;
17997;SDS011;9124;48.144;17.098;2022-08-01T14:11:56;2.63;;;1.90;;
17997;SDS011;9124;48.144;17.098;2022-08-01T14:15:33;6.55;;;2.33;;
17997;SDS011;9124;48.144;17.098;2022-08-01T14:19:10;4.13;;;2.38;;
17997;SDS011;9124;48.144;17.098;2022-08-01T14:22:47;3.78;;;2.15;;
17997;SDS011;9124;48.144;17.098;2022-08-01T14:26:23;8.15;;;2.63;;
17997;SDS011;9124;48.144;17.098;2022-08-01T14:30:00;11.23;;;3.88;;
17997;SDS011;9124;48.144;17.098;2022-08-01T14:33:37;10.85;;;4.63;;
17997;SDS011;9124;48.144;17.098;2022-08-01T14:37:14;11.95;;;5.25;;
17997;SDS011;9124;48.144;17.098;2022-08-01T14:40:51;7.95;;;5.10;;
17997;SDS011;9124;48.144;17.098;2022-08-01T14:44:29;4.70;;;4.03;;
17997;SDS011;9124;48.144;17.098;2022-08-01T14:48:06;4.43;;;3.20;;
17997;SDS011;9124;48.144;17.098;2022-08-01T14:51:43;5.03;;;3.72;;
17997;SDS011;9124;48.144;17.098;2022-08-01T14:55:19;4.90;;;4.03;;
17997;SDS011;9124;48.144;17.098;2022-08-01T14:59:01;5.25;;;4.75;;
17997;SDS011;9124;48.144;17.098;2022-08-01T15:02:37;13.85;;;5.13;;
17997;SDS011;9124;48.144;17.098;2022-08-01T15:06:14;10.90;;;4.75;;
17997;SDS011;9124;48.144;17.098;2022-08-01T15:09:51;7.43;;;5.22;;
17997;SDS011;9124;48.144;17.098;2022-08-01T15:13:29;5.90;;;5.40;;
17997;SDS011;9124;48.144;17.098;2022-08-01T15:17:05;8.35;;;4.45;;
17997;SDS011;9124;48.144;17.098;2022-08-01T15:20:43;4.85;;;4.25;;
17997;SDS011;9124;48.144;17.098;2022-08-01T15:24:21;4.53;;;4.22;;
17997;SDS011;9124;48.144;17.098;2022-08-01T15:27:57;8.85;;;4.18;;
17997;SDS011;9124;48.144;17.098;2022-08-01T15:31:34;4.90;;;3.97;;
17997;SDS011;9124;48.144;17.098;2022-08-01T15:35:12;4.45;;;4.05;;
17997;SDS011;9124;48.144;17.098;2022-08-01T15:38:49;5.72;;;4.30;;
17997;SDS011;9124;48.144;17.098;2022-08-01T15:42:27;4.10;;;3.80;;
17997;SDS011;9124;48.144;17.098;2022-08-01T15:46:03;3.50;;;3.33;;
17997;SDS011;9124;48.144;17.098;2022-08-01T15:49:41;5.68;;;3.35;;
17997;SDS011;9124;48.144;17.098;2022-08-01T15:53:17;5.45;;;3.10;;
17997;SDS011;9124;48.144;17.098;2022-08-01T15:56:55;5.40;;;3.63;;
17997;SDS011;9124;48.144;17.098;2022-08-01T16:00:31;3.45;;;3.25;;
17997;SDS011;9124;48.144;17.098;2022-08-01T16:04:09;5.72;;;3.92;;
17997;SDS011;9124;48.144;17.098;2022-08-01T16:07:45;5.05;;;4.65;;
17997;SDS011;9124;48.144;17.098;2022-08-01T16:11:23;4.97;;;4.50;;
17997;SDS011;9124;48.144;17.098;2022-08-01T16:15:01;4.57;;;4.15;;
17997;SDS011;9124;48.144;17.098;2022-08-01T16:18:39;9.32;;;4.57;;
17997;SDS011;9124;48.144;17.098;2022-08-01T16:22:15;4.78;;;4.32;;
17997;SDS011;9124;48.144;17.098;2022-08-01T16:25:53;8.07;;;4.40;;
17997;SDS011;9124;48.144;17.098;2022-08-01T16:29:30;4.38;;;4.05;;
17997;SDS011;9124;48.144;17.098;2022-08-01T16:33:07;4.68;;;4.05;;
17997;SDS011;9124;48.144;17.098;2022-08-01T16:36:43;4.45;;;4.10;;
17997;SDS011;9124;48.144;17.098;2022-08-01T16:40:21;4.65;;;4.35;;
17997;SDS011;9124;48.144;17.098;2022-08-01T16:43:57;3.17;;;2.97;;
17997;SDS011;9124;48.144;17.098;2022-08-01T16:47:34;3.33;;;3.10;;
17997;SDS011;9124;48.144;17.098;2022-08-01T16:51:11;2.83;;;2.72;;
17997;SDS011;9124;48.144;17.098;2022-08-01T16:54:48;4.82;;;3.35;;
17997;SDS011;9124;48.144;17.098;2022-08-01T16:58:25;3.03;;;2.80;;
17997;SDS011;9124;48.144;17.098;2022-08-01T17:02:02;3.65;;;2.90;;
17997;SDS011;9124;48.144;17.098;2022-08-01T17:05:39;6.30;;;2.63;;
17997;SDS011;9124;48.144;17.098;2022-08-01T17:09:17;2.92;;;2.72;;
17997;SDS011;9124;48.144;17.098;2022-08-01T17:12:54;3.83;;;3.53;;
17997;SDS011;9124;48.144;17.098;2022-08-01T17:16:31;5.45;;;4.05;;
17997;SDS011;9124;48.144;17.098;2022-08-01T17:20:07;4.97;;;3.60;;
17997;SDS011;9124;48.144;17.098;2022-08-01T17:23:45;4.53;;;3.80;;
17997;SDS011;9124;48.144;17.098;2022-08-01T17:27:22;4.03;;;3.72;;
17997;SDS011;9124;48.144;17.098;2022-08-01T17:30:59;3.80;;;3.47;;
17997;SDS011;9124;48.144;17.098;2022-08-01T17:34:36;4.45;;;4.15;;
17997;SDS011;9124;48.144;17.098;2022-08-01T17:38:15;3.75;;;3.45;;
17997;SDS011;9124;48.144;17.098;2022-08-01T17:41:51;5.57;;;3.40;;
17997;SDS011;9124;48.144;17.098;2022-08-01T17:45:28;4.43;;;3.75;;
17997;SDS011;9124;48.144;17.098;2022-08-01T17:49:05;3.97;;;3.78;;
17997;SDS011;9124;48.144;17.098;2022-08-01T17:52:45;7.20;;;4.78;;
17997;SDS011;9124;48.144;17.098;2022-08-01T17:56:22;5.53;;;4.43;;
17997;SDS011;9124;48.144;17.098;2022-08-01T18:00:03;4.15;;;3.88;;
17997;SDS011;9124;48.144;17.098;2022-08-01T18:03:46;3.83;;;3.63;;
17997;SDS011;9124;48.144;17.098;2022-08-01T18:07:23;4.68;;;4.35;;
17997;SDS011;9124;48.144;17.098;2022-08-01T18:11:00;6.35;;;3.90;;
17997;SDS011;9124;48.144;17.098;2022-08-01T18:14:36;4.68;;;3.72;;
17997;SDS011;9124;48.144;17.098;2022-08-01T18:18:13;7.80;;;3.97;;
17997;SDS011;9124;48.144;17.098;2022-08-01T18:21:52;4.18;;;3.97;;
17997;SDS011;9124;48.144;17.098;2022-08-01T18:25:28;4.93;;;4.18;;
17997;SDS011;9124;48.144;17.098;2022-08-01T18:29:05;4.03;;;3.70;;
17997;SDS011;9124;48.144;17.098;2022-08-01T18:32:42;3.92;;;3.63;;
17997;SDS011;9124;48.144;17.098;2022-08-01T18:36:20;3.47;;;3.25;;
17997;SDS011;9124;48.144;17.098;2022-08-01T18:39:56;4.10;;;3.53;;
17997;SDS011;9124;48.144;17.098;2022-08-01T18:43:34;5.60;;;3.25;;
17997;SDS011;9124;48.144;17.098;2022-08-01T18:47:11;4.20;;;3.65;;
17997;SDS011;9124;48.144;17.098;2022-08-01T18:50:48;4.95;;;3.40;;
17997;SDS011;9124;48.144;17.098;2022-08-01T18:54:25;3.03;;;2.83;;
17997;SDS011;9124;48.144;17.098;2022-08-01T18:58:02;3.15;;;2.85;;
17997;SDS011;9124;48.144;17.098;2022-08-01T19:01:39;6.25;;;3.30;;
17997;SDS011;9124;48.144;17.098;2022-08-01T19:05:16;2.88;;;2.75;;
17997;SDS011;9124;48.144;17.098;2022-08-01T19:08:53;3.65;;;3.33;;
17997;SDS011;9124;48.144;17.098;2022-08-01T19:12:31;5.00;;;3.38;;
17997;SDS011;9124;48.144;17.098;2022-08-01T19:16:07;4.07;;;2.97;;
17997;SDS011;9124;48.144;17.098;2022-08-01T19:19:45;2.95;;;2.75;;
17997;SDS011;9124;48.144;17.098;2022-08-01T19:23:22;3.72;;;2.28;;
17997;SDS011;9124;48.144;17.098;2022-08-01T19:27:17;6.28;;;2.85;;
17997;SDS011;9124;48.144;17.098;2022-08-01T19:30:59;2.85;;;2.60;;
17997;SDS011;9124;48.144;17.098;2022-08-01T19:34:42;4.10;;;2.50;;
17997;SDS011;9124;48.144;17.098;2022-08-01T19:38:24;3.20;;;2.60;;
17997;SDS011;9124;48.144;17.098;2022-08-01T19:42:03;2.95;;;2.63;;
17997;SDS011;9124;48.144;17.098;2022-08-01T19:45:40;3.42;;;2.78;;
17997;SDS011;9124;48.144;17.098;2022-08-01T19:49:19;2.92;;;2.53;;
17997;SDS011;9124;48.144;17.098;2022-08-01T19:52:56;2.17;;;2.08;;
17997;SDS011;9124;48.144;17.098;2022-08-01T19:56:40;2.53;;;2.33;;
17997;SDS011;9124;48.144;17.098;2022-08-01T20:00:19;4.75;;;2.78;;
17997;SDS011;9124;48.144;17.098;2022-08-01T20:03:57;2.72;;;2.50;;
17997;SDS011;9124;48.144;17.098;2022-08-01T20:07:36;2.90;;;2.70;;
17997;SDS011;9124;48.144;17.098;2022-08-01T20:11:13;4.20;;;2.40;;
17997;SDS011;9124;48.144;17.098;2022-08-01T20:14:52;4.75;;;2.05;;
17997;SDS011;9124;48.144;17.098;2022-08-01T20:18:30;3.10;;;2.90;;
17997;SDS011;9124;48.144;17.098;2022-08-01T20:22:06;3.97;;;2.75;;
17997;SDS011;9124;48.144;17.098;2022-08-01T20:25:45;2.80;;;2.60;;
17997;SDS011;9124;48.144;17.098;2022-08-01T20:29:25;4.50;;;2.55;;
17997;SDS011;9124;48.144;17.098;2022-08-01T20:33:05;3.00;;;2.70;;
17997;SDS011;9124;48.144;17.098;2022-08-01T20:36:42;4.03;;;2.67;;
17997;SDS011;9124;48.144;17.098;2022-08-01T20:40:21;3.35;;;3.05;;
17997;SDS011;9124;48.144;17.098;2022-08-01T20:43:58;2.45;;;2.33;;
17997;SDS011;9124;48.144;17.098;2022-08-01T20:47:37;2.83;;;2.10;;
17997;SDS011;9124;48.144;17.098;2022-08-01T20:51:14;3.80;;;2.78;;
17997;SDS011;9124;48.144;17.098;2022-08-01T20:54:54;3.25;;;3.03;;
17997;SDS011;9124;48.144;17.098;2022-08-01T21:02:32;3.53;;;2.70;;
17997;SDS011;9124;48.144;17.098;2022-08-01T21:06:31;3.15;;;2.33;;
17997;SDS011;9124;48.144;17.098;2022-08-01T21:10:15;4.72;;;2.67;;
17997;SDS011;9124;48.144;17.098;2022-08-01T21:13:53;2.83;;;2.63;;
17997;SDS011;9124;48.144;17.098;2022-08-01T21:17:43;4.07;;;3.05;;
17997;SDS011;9124;48.144;17.098;2022-08-01T21:21:39;2.97;;;2.78;;
17997;SDS011;9124;48.144;17.098;2022-08-01T21:25:22;3.42;;;2.67;;
17997;SDS011;9124;48.144;17.098;2022-08-01T21:29:05;3.47;;;2.50;;
17997;SDS011;9124;48.144;17.098;2022-08-01T21:32:43;2.80;;;2.70;;
17997;SDS011;9124;48.144;17.098;2022-08-01T21:36:22;4.95;;;3.17;;
17997;SDS011;9124;48.144;17.098;2022-08-01T21:40:01;4.00;;;2.97;;
17997;SDS011;9124;48.144;17.098;2022-08-01T21:43:39;3.78;;;2.83;;
17997;SDS011;9124;48.144;17.098;2022-08-01T21:47:17;3.20;;;3.00;;
17997;SDS011;9124;48.144;17.098;2022-08-01T21:51:04;7.50;;;2.63;;
17997;SDS011;9124;48.144;17.098;2022-08-01T21:54:59;5.18;;;2.72;;
17997;SDS011;9124;48.144;17.098;2022-08-01T21:58:46;3.78;;;3.13;;
17997;SDS011;9124;48.144;17.098;2022-08-01T22:02:36;3.40;;;3.10;;
17997;SDS011;9124;48.144;17.098;2022-08-01T22:06:18;5.68;;;3.03;;
17997;SDS011;9124;48.144;17.098;2022-08-01T22:09:56;3.03;;;2.83;;
17997;SDS011;9124;48.144;17.098;2022-08-01T22:13:34;2.83;;;2.63;;
17997;SDS011;9124;48.144;17.098;2022-08-01T22:17:21;4.00;;;3.08;;
17997;SDS011;9124;48.144;17.098;2022-08-01T22:20:59;3.53;;;3.22;;
17997;SDS011;9124;48.144;17.098;2022-08-01T22:24:39;3.20;;;3.00;;
17997;SDS011;9124;48.144;17.098;2022-08-01T22:28:16;3.70;;;3.00;;
17997;SDS011;9124;48.144;17.098;2022-08-01T22:31:53;3.30;;;3.10;;